首页
METAR-TAF:

METAR-TAF

机场 :

Webster City Municipal Airport

Webster City, 艾奥瓦州, 美国

纬度: 42-26N, 经度: 093-52W, 海拔: 342米

当前天气观测

该预报发布于21分钟前的10:55 UTC
静风
温度 15°C
湿度 100%
气压 1009 hPa
能見度: 2.0公里
散云层高于200英尺
散云层高于700英尺
阴天层高于2300英尺
轻雾

METAR: KEBS 161055Z AUTO 00000KT 1 1/4SM BR SCT002 SCT007 OVC023 15/15 A2980 RMK AO2

时间: 06:16 (11:16 UTC)


TAF: 丢失

超过4000个机场的气象观测和天气预报(METAR&TAF报告)。

可查询的气象台以黄色和红色小点在地图上表示。

将鼠标移到小点上方,可查看气象台名称。

然后点击查看天气观测和预报。

如需切换地图:点击带黑十字的绿色按钮放大地图;点击带横线的绿色按钮缩小地图;或者点击绿色箭头查看邻近地区的地图。


METAR-TAF: